sensor_id;sensor_type;location;lat;lon;timestamp;P1;durP1;ratioP1;P2;durP2;ratioP2
84946;SDS011;75241;51.692;5.196;2024-02-21T00:00:40;12.63;;;6.65;;
84946;SDS011;75241;51.692;5.196;2024-02-21T00:03:06;13.15;;;6.75;;
84946;SDS011;75241;51.692;5.196;2024-02-21T00:05:32;11.50;;;6.22;;
84946;SDS011;75241;51.692;5.196;2024-02-21T00:07:58;13.32;;;6.93;;
84946;SDS011;75241;51.692;5.196;2024-02-21T00:10:24;11.73;;;6.43;;
84946;SDS011;75241;51.692;5.196;2024-02-21T00:12:50;12.82;;;6.57;;
84946;SDS011;75241;51.692;5.196;2024-02-21T00:15:16;12.15;;;7.40;;
84946;SDS011;75241;51.692;5.196;2024-02-21T00:17:43;11.35;;;6.00;;
84946;SDS011;75241;51.692;5.196;2024-02-21T00:20:09;8.98;;;6.13;;
84946;SDS011;75241;51.692;5.196;2024-02-21T00:22:35;12.25;;;6.00;;
84946;SDS011;75241;51.692;5.196;2024-02-21T00:25:00;11.60;;;6.53;;
84946;SDS011;75241;51.692;5.196;2024-02-21T00:27:26;11.70;;;6.18;;
84946;SDS011;75241;51.692;5.196;2024-02-21T00:29:51;9.15;;;5.78;;
84946;SDS011;75241;51.692;5.196;2024-02-21T00:32:17;16.13;;;6.25;;
84946;SDS011;75241;51.692;5.196;2024-02-21T00:34:42;15.35;;;6.75;;
84946;SDS011;75241;51.692;5.196;2024-02-21T00:37:08;11.25;;;6.97;;
84946;SDS011;75241;51.692;5.196;2024-02-21T00:39:34;14.30;;;6.95;;
84946;SDS011;75241;51.692;5.196;2024-02-21T00:41:59;11.07;;;6.78;;
84946;SDS011;75241;51.692;5.196;2024-02-21T00:44:26;13.20;;;7.32;;
84946;SDS011;75241;51.692;5.196;2024-02-21T00:46:51;13.57;;;7.68;;
84946;SDS011;75241;51.692;5.196;2024-02-21T00:49:17;16.02;;;7.82;;
84946;SDS011;75241;51.692;5.196;2024-02-21T00:51:43;18.90;;;8.82;;
84946;SDS011;75241;51.692;5.196;2024-02-21T00:54:08;12.55;;;7.85;;
84946;SDS011;75241;51.692;5.196;2024-02-21T00:56:34;16.35;;;8.23;;
84946;SDS011;75241;51.692;5.196;2024-02-21T00:58:59;14.80;;;8.18;;
84946;SDS011;75241;51.692;5.196;2024-02-21T01:01:25;15.10;;;8.98;;
84946;SDS011;75241;51.692;5.196;2024-02-21T01:03:50;11.98;;;7.78;;
84946;SDS011;75241;51.692;5.196;2024-02-21T01:06:18;21.00;;;8.93;;
84946;SDS011;75241;51.692;5.196;2024-02-21T01:08:46;15.45;;;8.93;;
84946;SDS011;75241;51.692;5.196;2024-02-21T01:11:15;18.17;;;7.80;;
84946;SDS011;75241;51.692;5.196;2024-02-21T01:13:41;19.83;;;9.05;;
84946;SDS011;75241;51.692;5.196;2024-02-21T01:16:06;15.52;;;8.02;;
84946;SDS011;75241;51.692;5.196;2024-02-21T01:18:33;18.40;;;8.77;;
84946;SDS011;75241;51.692;5.196;2024-02-21T01:20:59;20.27;;;9.40;;
84946;SDS011;75241;51.692;5.196;2024-02-21T01:23:24;16.42;;;9.23;;
84946;SDS011;75241;51.692;5.196;2024-02-21T01:25:50;19.27;;;9.23;;
84946;SDS011;75241;51.692;5.196;2024-02-21T01:28:16;20.30;;;9.68;;
84946;SDS011;75241;51.692;5.196;2024-02-21T01:30:41;21.83;;;10.00;;
84946;SDS011;75241;51.692;5.196;2024-02-21T01:33:06;17.17;;;9.98;;
84946;SDS011;75241;51.692;5.196;2024-02-21T01:35:32;18.50;;;9.20;;
84946;SDS011;75241;51.692;5.196;2024-02-21T01:37:57;20.98;;;10.90;;
84946;SDS011;75241;51.692;5.196;2024-02-21T01:40:22;18.45;;;9.45;;
84946;SDS011;75241;51.692;5.196;2024-02-21T01:42:48;14.48;;;9.13;;
84946;SDS011;75241;51.692;5.196;2024-02-21T01:45:13;18.38;;;8.77;;
84946;SDS011;75241;51.692;5.196;2024-02-21T01:47:39;16.15;;;8.95;;
84946;SDS011;75241;51.692;5.196;2024-02-21T01:50:05;16.10;;;8.27;;
84946;SDS011;75241;51.692;5.196;2024-02-21T01:52:31;20.13;;;8.80;;
84946;SDS011;75241;51.692;5.196;2024-02-21T01:55:00;17.83;;;8.85;;
84946;SDS011;75241;51.692;5.196;2024-02-21T01:57:26;16.63;;;8.82;;
84946;SDS011;75241;51.692;5.196;2024-02-21T01:59:53;19.38;;;9.48;;
84946;SDS011;75241;51.692;5.196;2024-02-21T02:02:19;18.67;;;8.98;;
84946;SDS011;75241;51.692;5.196;2024-02-21T02:04:44;16.95;;;7.20;;
84946;SDS011;75241;51.692;5.196;2024-02-21T02:07:10;15.10;;;8.63;;
84946;SDS011;75241;51.692;5.196;2024-02-21T02:09:35;13.63;;;7.88;;
84946;SDS011;75241;51.692;5.196;2024-02-21T02:12:01;16.50;;;8.32;;
84946;SDS011;75241;51.692;5.196;2024-02-21T02:14:27;15.00;;;8.05;;
84946;SDS011;75241;51.692;5.196;2024-02-21T02:16:52;18.08;;;9.10;;
84946;SDS011;75241;51.692;5.196;2024-02-21T02:19:18;13.50;;;8.27;;
84946;SDS011;75241;51.692;5.196;2024-02-21T02:21:46;14.88;;;7.35;;
84946;SDS011;75241;51.692;5.196;2024-02-21T02:24:18;14.68;;;7.45;;
84946;SDS011;75241;51.692;5.196;2024-02-21T02:26:45;13.30;;;8.25;;
84946;SDS011;75241;51.692;5.196;2024-02-21T02:29:10;13.02;;;7.60;;
84946;SDS011;75241;51.692;5.196;2024-02-21T02:31:36;14.57;;;7.07;;
84946;SDS011;75241;51.692;5.196;2024-02-21T02:34:02;16.05;;;7.15;;
84946;SDS011;75241;51.692;5.196;2024-02-21T02:36:28;14.10;;;7.68;;
84946;SDS011;75241;51.692;5.196;2024-02-21T02:38:54;13.77;;;5.93;;
84946;SDS011;75241;51.692;5.196;2024-02-21T02:41:20;13.55;;;6.88;;
84946;SDS011;75241;51.692;5.196;2024-02-21T02:43:45;14.80;;;7.18;;
84946;SDS011;75241;51.692;5.196;2024-02-21T02:46:10;19.25;;;8.13;;
84946;SDS011;75241;51.692;5.196;2024-02-21T02:48:36;12.85;;;5.75;;
84946;SDS011;75241;51.692;5.196;2024-02-21T02:51:03;14.43;;;6.43;;
84946;SDS011;75241;51.692;5.196;2024-02-21T02:53:29;13.48;;;6.43;;
84946;SDS011;75241;51.692;5.196;2024-02-21T02:55:54;11.77;;;7.40;;
84946;SDS011;75241;51.692;5.196;2024-02-21T02:58:19;11.27;;;5.78;;
84946;SDS011;75241;51.692;5.196;2024-02-21T03:00:46;11.43;;;5.50;;
84946;SDS011;75241;51.692;5.196;2024-02-21T03:03:11;15.20;;;6.90;;
84946;SDS011;75241;51.692;5.196;2024-02-21T03:05:37;10.43;;;6.10;;
84946;SDS011;75241;51.692;5.196;2024-02-21T03:08:02;11.88;;;6.60;;
84946;SDS011;75241;51.692;5.196;2024-02-21T03:10:31;13.45;;;6.15;;
84946;SDS011;75241;51.692;5.196;2024-02-21T03:12:57;16.55;;;6.50;;
84946;SDS011;75241;51.692;5.196;2024-02-21T03:15:23;13.77;;;6.43;;
84946;SDS011;75241;51.692;5.196;2024-02-21T03:17:49;12.63;;;6.15;;
84946;SDS011;75241;51.692;5.196;2024-02-21T03:20:15;14.82;;;5.68;;
84946;SDS011;75241;51.692;5.196;2024-02-21T03:22:41;14.65;;;6.25;;
84946;SDS011;75241;51.692;5.196;2024-02-21T03:25:06;13.27;;;6.60;;
84946;SDS011;75241;51.692;5.196;2024-02-21T03:27:33;17.92;;;6.78;;
84946;SDS011;75241;51.692;5.196;2024-02-21T03:29:59;9.65;;;6.15;;
84946;SDS011;75241;51.692;5.196;2024-02-21T03:32:24;16.27;;;6.30;;
84946;SDS011;75241;51.692;5.196;2024-02-21T03:34:50;13.88;;;6.65;;
84946;SDS011;75241;51.692;5.196;2024-02-21T03:37:15;12.60;;;5.82;;
84946;SDS011;75241;51.692;5.196;2024-02-21T03:39:41;12.65;;;6.88;;
84946;SDS011;75241;51.692;5.196;2024-02-21T03:42:06;11.65;;;6.03;;
84946;SDS011;75241;51.692;5.196;2024-02-21T03:44:32;11.75;;;5.70;;
84946;SDS011;75241;51.692;5.196;2024-02-21T03:46:58;11.45;;;5.80;;
84946;SDS011;75241;51.692;5.196;2024-02-21T03:49:24;9.60;;;5.93;;
84946;SDS011;75241;51.692;5.196;2024-02-21T03:51:49;12.57;;;6.10;;
84946;SDS011;75241;51.692;5.196;2024-02-21T03:54:15;12.75;;;6.38;;
84946;SDS011;75241;51.692;5.196;2024-02-21T03:56:40;16.20;;;6.75;;
84946;SDS011;75241;51.692;5.196;2024-02-21T03:59:06;10.65;;;6.45;;
84946;SDS011;75241;51.692;5.196;2024-02-21T04:01:33;16.30;;;7.65;;
84946;SDS011;75241;51.692;5.196;2024-02-21T04:04:01;17.38;;;7.25;;
84946;SDS011;75241;51.692;5.196;2024-02-21T04:06:27;16.05;;;6.93;;
84946;SDS011;75241;51.692;5.196;2024-02-21T04:08:52;13.25;;;7.13;;
84946;SDS011;75241;51.692;5.196;2024-02-21T04:11:18;14.07;;;7.72;;
84946;SDS011;75241;51.692;5.196;2024-02-21T04:13:44;21.10;;;9.55;;
84946;SDS011;75241;51.692;5.196;2024-02-21T04:16:10;15.38;;;8.40;;
84946;SDS011;75241;51.692;5.196;2024-02-21T04:18:35;16.05;;;8.13;;
84946;SDS011;75241;51.692;5.196;2024-02-21T04:21:01;15.82;;;8.02;;
84946;SDS011;75241;51.692;5.196;2024-02-21T04:23:27;16.95;;;9.07;;
84946;SDS011;75241;51.692;5.196;2024-02-21T04:25:52;13.90;;;8.07;;
84946;SDS011;75241;51.692;5.196;2024-02-21T04:28:17;18.23;;;7.90;;
84946;SDS011;75241;51.692;5.196;2024-02-21T04:30:43;16.98;;;9.32;;
84946;SDS011;75241;51.692;5.196;2024-02-21T04:33:08;13.07;;;7.30;;
84946;SDS011;75241;51.692;5.196;2024-02-21T04:35:35;19.25;;;8.55;;
84946;SDS011;75241;51.692;5.196;2024-02-21T04:38:01;16.42;;;7.85;;
84946;SDS011;75241;51.692;5.196;2024-02-21T04:40:27;19.35;;;9.13;;
84946;SDS011;75241;51.692;5.196;2024-02-21T04:42:52;18.90;;;9.38;;
84946;SDS011;75241;51.692;5.196;2024-02-21T04:45:17;21.23;;;10.15;;
84946;SDS011;75241;51.692;5.196;2024-02-21T04:47:43;19.55;;;9.35;;
84946;SDS011;75241;51.692;5.196;2024-02-21T04:50:09;17.42;;;9.68;;
84946;SDS011;75241;51.692;5.196;2024-02-21T04:52:34;17.52;;;9.27;;
84946;SDS011;75241;51.692;5.196;2024-02-21T04:55:00;19.50;;;10.18;;
84946;SDS011;75241;51.692;5.196;2024-02-21T04:57:25;17.45;;;9.20;;
84946;SDS011;75241;51.692;5.196;2024-02-21T04:59:51;16.45;;;9.63;;
84946;SDS011;75241;51.692;5.196;2024-02-21T05:02:16;21.45;;;10.02;;
84946;SDS011;75241;51.692;5.196;2024-02-21T05:04:42;18.17;;;10.35;;
84946;SDS011;75241;51.692;5.196;2024-02-21T05:07:09;18.25;;;10.10;;
84946;SDS011;75241;51.692;5.196;2024-02-21T05:14:26;19.23;;;9.00;;
84946;SDS011;75241;51.692;5.196;2024-02-21T05:16:52;15.30;;;9.15;;
84946;SDS011;75241;51.692;5.196;2024-02-21T05:19:18;20.30;;;10.48;;
84946;SDS011;75241;51.692;5.196;2024-02-21T05:21:43;18.98;;;9.68;;
84946;SDS011;75241;51.692;5.196;2024-02-21T05:24:08;21.95;;;9.27;;
84946;SDS011;75241;51.692;5.196;2024-02-21T05:26:34;14.73;;;9.40;;
84946;SDS011;75241;51.692;5.196;2024-02-21T05:28:59;16.50;;;8.60;;
84946;SDS011;75241;51.692;5.196;2024-02-21T05:31:25;18.65;;;8.95;;
84946;SDS011;75241;51.692;5.196;2024-02-21T05:33:50;24.77;;;9.45;;
84946;SDS011;75241;51.692;5.196;2024-02-21T05:36:15;16.83;;;8.60;;
84946;SDS011;75241;51.692;5.196;2024-02-21T05:38:41;18.50;;;8.82;;
84946;SDS011;75241;51.692;5.196;2024-02-21T05:41:06;19.63;;;8.20;;
84946;SDS011;75241;51.692;5.196;2024-02-21T05:43:32;23.38;;;8.65;;
84946;SDS011;75241;51.692;5.196;2024-02-21T05:45:58;18.92;;;9.30;;
84946;SDS011;75241;51.692;5.196;2024-02-21T05:48:23;17.50;;;8.57;;
84946;SDS011;75241;51.692;5.196;2024-02-21T05:50:49;17.65;;;8.35;;
84946;SDS011;75241;51.692;5.196;2024-02-21T05:53:14;14.95;;;8.13;;
84946;SDS011;75241;51.692;5.196;2024-02-21T05:55:40;15.38;;;8.98;;
84946;SDS011;75241;51.692;5.196;2024-02-21T05:58:05;13.57;;;8.15;;
84946;SDS011;75241;51.692;5.196;2024-02-21T06:00:31;19.55;;;8.25;;
84946;SDS011;75241;51.692;5.196;2024-02-21T06:02:57;16.02;;;7.75;;
84946;SDS011;75241;51.692;5.196;2024-02-21T06:05:22;20.48;;;7.85;;
84946;SDS011;75241;51.692;5.196;2024-02-21T06:07:48;19.90;;;7.40;;
84946;SDS011;75241;51.692;5.196;2024-02-21T06:10:13;14.18;;;7.75;;
84946;SDS011;75241;51.692;5.196;2024-02-21T06:12:39;17.08;;;7.05;;
84946;SDS011;75241;51.692;5.196;2024-02-21T06:15:04;15.88;;;7.78;;
84946;SDS011;75241;51.692;5.196;2024-02-21T06:17:31;16.17;;;8.23;;
84946;SDS011;75241;51.692;5.196;2024-02-21T06:19:56;14.88;;;9.70;;
84946;SDS011;75241;51.692;5.196;2024-02-21T06:22:22;14.90;;;7.45;;
84946;SDS011;75241;51.692;5.196;2024-02-21T06:24:47;16.17;;;7.68;;
84946;SDS011;75241;51.692;5.196;2024-02-21T06:27:13;12.65;;;7.07;;
84946;SDS011;75241;51.692;5.196;2024-02-21T06:29:41;14.20;;;7.30;;
84946;SDS011;75241;51.692;5.196;2024-02-21T06:32:06;15.77;;;8.02;;
84946;SDS011;75241;51.692;5.196;2024-02-21T06:34:32;15.35;;;8.13;;
84946;SDS011;75241;51.692;5.196;2024-02-21T06:36:57;14.95;;;8.27;;
84946;SDS011;75241;51.692;5.196;2024-02-21T06:39:23;17.17;;;7.18;;
84946;SDS011;75241;51.692;5.196;2024-02-21T06:41:48;17.52;;;9.43;;
84946;SDS011;75241;51.692;5.196;2024-02-21T06:49:06;14.90;;;7.57;;
84946;SDS011;75241;51.692;5.196;2024-02-21T06:51:31;19.88;;;8.43;;
84946;SDS011;75241;51.692;5.196;2024-02-21T06:53:57;19.60;;;10.18;;
84946;SDS011;75241;51.692;5.196;2024-02-21T06:56:23;16.40;;;8.25;;
84946;SDS011;75241;51.692;5.196;2024-02-21T06:58:54;17.33;;;8.23;;
84946;SDS011;75241;51.692;5.196;2024-02-21T07:01:20;15.05;;;7.18;;
84946;SDS011;75241;51.692;5.196;2024-02-21T07:03:45;20.80;;;8.40;;
84946;SDS011;75241;51.692;5.196;2024-02-21T07:06:11;16.88;;;8.05;;
84946;SDS011;75241;51.692;5.196;2024-02-21T07:08:37;19.08;;;8.77;;
84946;SDS011;75241;51.692;5.196;2024-02-21T07:11:04;16.52;;;8.60;;
84946;SDS011;75241;51.692;5.196;2024-02-21T07:13:29;19.48;;;8.85;;
84946;SDS011;75241;51.692;5.196;2024-02-21T07:15:55;18.20;;;8.40;;
84946;SDS011;75241;51.692;5.196;2024-02-21T07:18:20;16.40;;;8.45;;
84946;SDS011;75241;51.692;5.196;2024-02-21T07:20:46;17.35;;;8.32;;
84946;SDS011;75241;51.692;5.196;2024-02-21T07:23:11;19.90;;;9.23;;
84946;SDS011;75241;51.692;5.196;2024-02-21T07:25:36;15.43;;;8.00;;
84946;SDS011;75241;51.692;5.196;2024-02-21T07:28:02;15.75;;;7.15;;
84946;SDS011;75241;51.692;5.196;2024-02-21T07:30:28;12.93;;;8.23;;
84946;SDS011;75241;51.692;5.196;2024-02-21T07:32:53;15.43;;;7.95;;
84946;SDS011;75241;51.692;5.196;2024-02-21T07:35:18;13.30;;;8.63;;
84946;SDS011;75241;51.692;5.196;2024-02-21T07:37:44;13.77;;;7.95;;
84946;SDS011;75241;51.692;5.196;2024-02-21T07:40:13;19.60;;;8.55;;
84946;SDS011;75241;51.692;5.196;2024-02-21T07:42:40;17.60;;;8.73;;
84946;SDS011;75241;51.692;5.196;2024-02-21T07:45:07;21.17;;;9.35;;
84946;SDS011;75241;51.692;5.196;2024-02-21T07:47:33;14.48;;;7.65;;
84946;SDS011;75241;51.692;5.196;2024-02-21T07:49:58;13.68;;;7.35;;
84946;SDS011;75241;51.692;5.196;2024-02-21T07:52:24;14.73;;;6.82;;
84946;SDS011;75241;51.692;5.196;2024-02-21T07:54:50;18.15;;;8.20;;
84946;SDS011;75241;51.692;5.196;2024-02-21T07:57:15;17.45;;;8.85;;
84946;SDS011;75241;51.692;5.196;2024-02-21T07:59:41;15.02;;;8.13;;
84946;SDS011;75241;51.692;5.196;2024-02-21T08:02:07;15.60;;;7.95;;
84946;SDS011;75241;51.692;5.196;2024-02-21T08:04:32;17.23;;;8.50;;
84946;SDS011;75241;51.692;5.196;2024-02-21T08:06:58;12.50;;;7.07;;
84946;SDS011;75241;51.692;5.196;2024-02-21T08:09:29;12.43;;;7.07;;
84946;SDS011;75241;51.692;5.196;2024-02-21T08:11:55;17.48;;;8.30;;
84946;SDS011;75241;51.692;5.196;2024-02-21T08:14:20;14.43;;;7.30;;
84946;SDS011;75241;51.692;5.196;2024-02-21T08:16:46;16.40;;;7.63;;
84946;SDS011;75241;51.692;5.196;2024-02-21T08:19:12;15.30;;;7.38;;
84946;SDS011;75241;51.692;5.196;2024-02-21T08:21:37;14.77;;;8.05;;
84946;SDS011;75241;51.692;5.196;2024-02-21T08:24:02;16.55;;;7.70;;
84946;SDS011;75241;51.692;5.196;2024-02-21T08:26:28;13.98;;;7.30;;
84946;SDS011;75241;51.692;5.196;2024-02-21T08:28:56;12.13;;;8.15;;
84946;SDS011;75241;51.692;5.196;2024-02-21T08:31:24;15.00;;;6.93;;
84946;SDS011;75241;51.692;5.196;2024-02-21T08:33:56;16.55;;;7.75;;
84946;SDS011;75241;51.692;5.196;2024-02-21T08:36:28;11.38;;;7.68;;
84946;SDS011;75241;51.692;5.196;2024-02-21T08:38:54;14.18;;;7.57;;
84946;SDS011;75241;51.692;5.196;2024-02-21T08:41:20;15.02;;;7.32;;
84946;SDS011;75241;51.692;5.196;2024-02-21T08:43:48;15.50;;;7.60;;
84946;SDS011;75241;51.692;5.196;2024-02-21T08:46:13;13.82;;;7.18;;
84946;SDS011;75241;51.692;5.196;2024-02-21T08:48:38;13.15;;;7.03;;
84946;SDS011;75241;51.692;5.196;2024-02-21T08:51:04;13.63;;;7.10;;
84946;SDS011;75241;51.692;5.196;2024-02-21T08:53:30;12.15;;;7.05;;
84946;SDS011;75241;51.692;5.196;2024-02-21T08:55:56;9.63;;;6.68;;
84946;SDS011;75241;51.692;5.196;2024-02-21T08:58:21;14.02;;;7.07;;
84946;SDS011;75241;51.692;5.196;2024-02-21T09:00:48;13.68;;;7.50;;
84946;SDS011;75241;51.692;5.196;2024-02-21T09:03:14;14.57;;;6.88;;
84946;SDS011;75241;51.692;5.196;2024-02-21T09:05:40;15.10;;;7.28;;
84946;SDS011;75241;51.692;5.196;2024-02-21T09:08:06;10.77;;;7.78;;
84946;SDS011;75241;51.692;5.196;2024-02-21T09:10:31;12.25;;;7.00;;
84946;SDS011;75241;51.692;5.196;2024-02-21T09:12:56;13.02;;;6.50;;
84946;SDS011;75241;51.692;5.196;2024-02-21T09:15:22;14.15;;;5.63;;
84946;SDS011;75241;51.692;5.196;2024-02-21T09:17:49;8.90;;;5.47;;
84946;SDS011;75241;51.692;5.196;2024-02-21T09:20:14;8.15;;;5.97;;
84946;SDS011;75241;51.692;5.196;2024-02-21T09:27:32;8.65;;;5.35;;
84946;SDS011;75241;51.692;5.196;2024-02-21T09:29:57;9.77;;;5.95;;
84946;SDS011;75241;51.692;5.196;2024-02-21T09:32:23;7.85;;;5.93;;
84946;SDS011;75241;51.692;5.196;2024-02-21T09:34:48;8.63;;;6.00;;
84946;SDS011;75241;51.692;5.196;2024-02-21T09:37:14;7.38;;;4.30;;
84946;SDS011;75241;51.692;5.196;2024-02-21T09:39:39;8.50;;;5.30;;
84946;SDS011;75241;51.692;5.196;2024-02-21T09:42:07;8.57;;;5.38;;
84946;SDS011;75241;51.692;5.196;2024-02-21T09:44:37;8.65;;;5.80;;
84946;SDS011;75241;51.692;5.196;2024-02-21T09:49:31;9.80;;;5.38;;
84946;SDS011;75241;51.692;5.196;2024-02-21T09:52:00;11.00;;;6.88;;
84946;SDS011;75241;51.692;5.196;2024-02-21T09:54:29;8.45;;;5.57;;
84946;SDS011;75241;51.692;5.196;2024-02-21T09:56:56;10.20;;;6.38;;
84946;SDS011;75241;51.692;5.196;2024-02-21T09:59:21;11.93;;;6.32;;
84946;SDS011;75241;51.692;5.196;2024-02-21T10:01:49;11.20;;;7.00;;
84946;SDS011;75241;51.692;5.196;2024-02-21T10:04:15;9.00;;;5.75;;
84946;SDS011;75241;51.692;5.196;2024-02-21T10:06:40;9.07;;;5.80;;
84946;SDS011;75241;51.692;5.196;2024-02-21T10:09:06;11.90;;;6.68;;
84946;SDS011;75241;51.692;5.196;2024-02-21T10:11:32;10.45;;;6.40;;
84946;SDS011;75241;51.692;5.196;2024-02-21T10:14:05;9.07;;;6.13;;
84946;SDS011;75241;51.692;5.196;2024-02-21T10:16:31;11.70;;;6.28;;
84946;SDS011;75241;51.692;5.196;2024-02-21T10:18:57;14.48;;;6.57;;
84946;SDS011;75241;51.692;5.196;2024-02-21T10:21:22;10.07;;;6.85;;
84946;SDS011;75241;51.692;5.196;2024-02-21T10:23:51;9.15;;;6.65;;
84946;SDS011;75241;51.692;5.196;2024-02-21T10:26:18;11.00;;;6.75;;
84946;SDS011;75241;51.692;5.196;2024-02-21T10:28:44;11.15;;;8.02;;
84946;SDS011;75241;51.692;5.196;2024-02-21T10:31:20;14.05;;;7.07;;
84946;SDS011;75241;51.692;5.196;2024-02-21T10:34:09;11.30;;;7.43;;
84946;SDS011;75241;51.692;5.196;2024-02-21T10:36:34;11.07;;;6.97;;
84946;SDS011;75241;51.692;5.196;2024-02-21T10:38:59;13.80;;;6.82;;
84946;SDS011;75241;51.692;5.196;2024-02-21T10:41:24;10.10;;;6.68;;
84946;SDS011;75241;51.692;5.196;2024-02-21T10:43:52;10.98;;;7.28;;
84946;SDS011;75241;51.692;5.196;2024-02-21T10:46:19;12.93;;;7.75;;
84946;SDS011;75241;51.692;5.196;2024-02-21T10:48:46;9.40;;;7.25;;
84946;SDS011;75241;51.692;5.196;2024-02-21T10:51:16;12.52;;;7.65;;
84946;SDS011;75241;51.692;5.196;2024-02-21T10:58:40;10.35;;;7.15;;
84946;SDS011;75241;51.692;5.196;2024-02-21T11:01:07;11.30;;;7.13;;
84946;SDS011;75241;51.692;5.196;2024-02-21T11:03:33;11.15;;;8.05;;
84946;SDS011;75241;51.692;5.196;2024-02-21T11:05:58;11.90;;;8.02;;
84946;SDS011;75241;51.692;5.196;2024-02-21T11:08:25;12.27;;;6.57;;
84946;SDS011;75241;51.692;5.196;2024-02-21T11:10:56;11.80;;;6.47;;
84946;SDS011;75241;51.692;5.196;2024-02-21T11:13:30;18.88;;;7.07;;
84946;SDS011;75241;51.692;5.196;2024-02-21T11:16:08;9.40;;;6.80;;
84946;SDS011;75241;51.692;5.196;2024-02-21T11:18:46;10.07;;;6.47;;
84946;SDS011;75241;51.692;5.196;2024-02-21T11:21:11;8.18;;;5.47;;
84946;SDS011;75241;51.692;5.196;2024-02-21T11:23:37;10.65;;;5.88;;
84946;SDS011;75241;51.692;5.196;2024-02-21T11:26:06;9.80;;;5.95;;
84946;SDS011;75241;51.692;5.196;2024-02-21T11:28:32;9.30;;;5.28;;
84946;SDS011;75241;51.692;5.196;2024-02-21T11:31:11;10.48;;;6.45;;
84946;SDS011;75241;51.692;5.196;2024-02-21T11:33:40;10.65;;;6.45;;
84946;SDS011;75241;51.692;5.196;2024-02-21T11:36:09;8.90;;;5.88;;
84946;SDS011;75241;51.692;5.196;2024-02-21T11:38:35;8.40;;;5.55;;
84946;SDS011;75241;51.692;5.196;2024-02-21T11:41:00;9.48;;;5.13;;
84946;SDS011;75241;51.692;5.196;2024-02-21T11:43:26;7.80;;;4.80;;
84946;SDS011;75241;51.692;5.196;2024-02-21T11:46:00;7.40;;;4.25;;
84946;SDS011;75241;51.692;5.196;2024-02-21T11:48:26;7.22;;;4.65;;
84946;SDS011;75241;51.692;5.196;2024-02-21T11:50:55;10.23;;;4.70;;
84946;SDS011;75241;51.692;5.196;2024-02-21T11:53:21;8.15;;;4.47;;
84946;SDS011;75241;51.692;5.196;2024-02-21T11:55:47;7.72;;;4.45;;
84946;SDS011;75241;51.692;5.196;2024-02-21T11:58:12;5.93;;;4.55;;
84946;SDS011;75241;51.692;5.196;2024-02-21T12:00:38;6.22;;;4.70;;
84946;SDS011;75241;51.692;5.196;2024-02-21T12:03:04;6.25;;;4.18;;
84946;SDS011;75241;51.692;5.196;2024-02-21T12:05:30;8.20;;;4.47;;
84946;SDS011;75241;51.692;5.196;2024-02-21T12:07:56;9.13;;;4.82;;
84946;SDS011;75241;51.692;5.196;2024-02-21T12:10:23;12.30;;;5.38;;
84946;SDS011;75241;51.692;5.196;2024-02-21T12:12:51;10.68;;;4.68;;
84946;SDS011;75241;51.692;5.196;2024-02-21T12:15:18;10.15;;;4.72;;
84946;SDS011;75241;51.692;5.196;2024-02-21T12:17:43;7.85;;;3.90;;
84946;SDS011;75241;51.692;5.196;2024-02-21T12:20:10;9.27;;;4.38;;
84946;SDS011;75241;51.692;5.196;2024-02-21T12:22:36;10.25;;;4.80;;
84946;SDS011;75241;51.692;5.196;2024-02-21T12:25:17;7.60;;;4.18;;
84946;SDS011;75241;51.692;5.196;2024-02-21T12:27:44;9.80;;;4.90;;
84946;SDS011;75241;51.692;5.196;2024-02-21T12:30:10;8.40;;;4.25;;
84946;SDS011;75241;51.692;5.196;2024-02-21T12:32:36;7.57;;;4.43;;
84946;SDS011;75241;51.692;5.196;2024-02-21T12:35:01;8.13;;;4.40;;
84946;SDS011;75241;51.692;5.196;2024-02-21T12:37:27;6.07;;;3.75;;
84946;SDS011;75241;51.692;5.196;2024-02-21T12:39:52;6.72;;;3.88;;
84946;SDS011;75241;51.692;5.196;2024-02-21T12:42:18;7.60;;;3.90;;
84946;SDS011;75241;51.692;5.196;2024-02-21T12:44:44;8.30;;;4.30;;
84946;SDS011;75241;51.692;5.196;2024-02-21T12:47:09;9.32;;;4.60;;
84946;SDS011;75241;51.692;5.196;2024-02-21T12:49:35;8.10;;;3.95;;
84946;SDS011;75241;51.692;5.196;2024-02-21T12:52:00;6.25;;;3.88;;
84946;SDS011;75241;51.692;5.196;2024-02-21T12:54:26;6.18;;;3.85;;
84946;SDS011;75241;51.692;5.196;2024-02-21T12:56:51;9.55;;;4.65;;
84946;SDS011;75241;51.692;5.196;2024-02-21T12:59:17;8.23;;;3.92;;
84946;SDS011;75241;51.692;5.196;2024-02-21T13:01:42;8.75;;;3.78;;
84946;SDS011;75241;51.692;5.196;2024-02-21T13:04:07;8.40;;;3.95;;
84946;SDS011;75241;51.692;5.196;2024-02-21T13:06:33;5.72;;;3.88;;
84946;SDS011;75241;51.692;5.196;2024-02-21T13:08:58;6.13;;;3.58;;
84946;SDS011;75241;51.692;5.196;2024-02-21T13:11:26;8.85;;;4.20;;
84946;SDS011;75241;51.692;5.196;2024-02-21T13:13:55;5.95;;;3.50;;
84946;SDS011;75241;51.692;5.196;2024-02-21T13:16:21;8.30;;;3.92;;
84946;SDS011;75241;51.692;5.196;2024-02-21T13:18:47;12.63;;;4.15;;
84946;SDS011;75241;51.692;5.196;2024-02-21T13:21:13;6.10;;;2.90;;
84946;SDS011;75241;51.692;5.196;2024-02-21T13:23:39;3.70;;;2.92;;
84946;SDS011;75241;51.692;5.196;2024-02-21T13:26:05;6.30;;;3.30;;
84946;SDS011;75241;51.692;5.196;2024-02-21T13:28:30;5.97;;;3.58;;
84946;SDS011;75241;51.692;5.196;2024-02-21T13:30:56;8.88;;;3.28;;
84946;SDS011;75241;51.692;5.196;2024-02-21T13:33:22;6.68;;;3.25;;
84946;SDS011;75241;51.692;5.196;2024-02-21T13:35:48;6.63;;;3.17;;
84946;SDS011;75241;51.692;5.196;2024-02-21T13:38:13;6.60;;;3.25;;
84946;SDS011;75241;51.692;5.196;2024-02-21T13:40:39;6.22;;;3.08;;
84946;SDS011;75241;51.692;5.196;2024-02-21T13:43:07;8.93;;;3.20;;
84946;SDS011;75241;51.692;5.196;2024-02-21T13:45:32;5.90;;;3.20;;
84946;SDS011;75241;51.692;5.196;2024-02-21T13:47:58;7.75;;;3.08;;
84946;SDS011;75241;51.692;5.196;2024-02-21T13:50:25;9.48;;;3.17;;
84946;SDS011;75241;51.692;5.196;2024-02-21T13:52:56;5.30;;;3.20;;
84946;SDS011;75241;51.692;5.196;2024-02-21T13:55:22;6.97;;;3.63;;
84946;SDS011;75241;51.692;5.196;2024-02-21T13:57:48;6.35;;;3.40;;
84946;SDS011;75241;51.692;5.196;2024-02-21T14:00:14;4.90;;;2.80;;
84946;SDS011;75241;51.692;5.196;2024-02-21T14:02:40;4.32;;;2.78;;
84946;SDS011;75241;51.692;5.196;2024-02-21T14:05:05;8.90;;;3.58;;
84946;SDS011;75241;51.692;5.196;2024-02-21T14:07:31;6.43;;;3.47;;
84946;SDS011;75241;51.692;5.196;2024-02-21T14:09:58;8.23;;;4.05;;
84946;SDS011;75241;51.692;5.196;2024-02-21T14:12:24;9.00;;;3.30;;
84946;SDS011;75241;51.692;5.196;2024-02-21T14:14:49;6.53;;;3.40;;
84946;SDS011;75241;51.692;5.196;2024-02-21T14:17:15;7.68;;;3.67;;
84946;SDS011;75241;51.692;5.196;2024-02-21T14:19:40;7.95;;;3.95;;
84946;SDS011;75241;51.692;5.196;2024-02-21T14:22:06;10.20;;;3.80;;
84946;SDS011;75241;51.692;5.196;2024-02-21T14:24:32;6.50;;;3.70;;
84946;SDS011;75241;51.692;5.196;2024-02-21T14:26:57;5.47;;;3.53;;
84946;SDS011;75241;51.692;5.196;2024-02-21T14:29:22;6.68;;;4.00;;
84946;SDS011;75241;51.692;5.196;2024-02-21T14:31:48;6.28;;;3.60;;
84946;SDS011;75241;51.692;5.196;2024-02-21T14:34:13;13.30;;;3.67;;
84946;SDS011;75241;51.692;5.196;2024-02-21T14:36:39;8.02;;;4.38;;
84946;SDS011;75241;51.692;5.196;2024-02-21T14:39:05;5.43;;;3.75;;
84946;SDS011;75241;51.692;5.196;2024-02-21T14:41:31;10.30;;;4.28;;
84946;SDS011;75241;51.692;5.196;2024-02-21T14:43:56;8.98;;;3.92;;
84946;SDS011;75241;51.692;5.196;2024-02-21T14:46:25;6.07;;;3.67;;
84946;SDS011;75241;51.692;5.196;2024-02-21T14:48:51;5.93;;;3.42;;
84946;SDS011;75241;51.692;5.196;2024-02-21T14:51:18;7.13;;;4.70;;
84946;SDS011;75241;51.692;5.196;2024-02-21T14:53:43;9.23;;;4.88;;